Time;durP1;ratioP1;P1;durP2;ratioP2;P2;SDS_P1;SDS_P2;PMS_P1;PMS_P2;Temp;Humidity;BMP_temperature;BMP_pressure;BME280_temperature;BME280_humidity;BME280_pressure;Samples;Min_cycle;Max_cycle;Signal;HPM_P1;HPM_P2
2021/12/01 00:02:57;;;;;;;7.10;6.20;;;;;9.50;99850.00;;;;10442257;28;20278;-79
2021/12/01 00:08:00;;;;;;;5.83;5.33;;;;;9.50;99856.00;;;;10490135;28;20235;-79
2021/12/01 00:13:07;;;;;;;7.73;7.00;;;;;9.50;99825.00;;;;10487627;28;20279;-78
2021/12/01 00:18:10;;;;;;;6.83;5.87;;;;;9.50;99826.00;;;;10471962;28;20197;-78
2021/12/01 00:23:13;;;;;;;5.63;5.13;;;;;9.50;99812.00;;;;10507741;28;20841;-78
2021/12/01 00:28:15;;;;;;;6.00;5.40;;;;;9.50;99796.00;;;;10488330;28;20208;-78
2021/12/01 00:33:22;;;;;;;5.63;5.13;;;;;9.40;99776.00;;;;10489776;28;20586;-78
2021/12/01 00:38:26;;;;;;;5.07;4.67;;;;;9.40;99759.00;;;;10488636;28;20212;-78
2021/12/01 00:43:29;;;;;;;4.30;3.90;;;;;9.50;99758.00;;;;10487849;28;20197;-78
2021/12/01 00:48:31;;;;;;;5.93;4.27;;;;;9.50;99753.00;;;;10463707;28;20198;-77
2021/12/01 00:53:33;;;;;;;3.80;3.30;;;;;9.50;99737.00;;;;10479360;28;20719;-78
2021/12/01 00:58:35;;;;;;;3.67;3.37;;;;;9.50;99719.00;;;;10503457;28;20221;-77
2021/12/01 01:03:37;;;;;;;2.83;2.63;;;;;9.50;99721.00;;;;10458320;28;20200;-78
2021/12/01 01:08:39;;;;;;;2.67;2.47;;;;;9.40;99697.00;;;;10491726;28;20220;-78
2021/12/01 01:19:04;;;;;;;3.40;2.67;;;;;9.40;99701.00;;;;10521103;28;20274;-78
2021/12/01 01:24:06;;;;;;;3.50;2.93;;;;;9.30;99680.00;;;;10466882;28;20194;-78
2021/12/01 01:29:08;;;;;;;3.50;3.20;;;;;9.30;99672.00;;;;10463587;28;20201;-77
2021/12/01 01:34:11;;;;;;;3.97;3.53;;;;;9.20;99661.00;;;;10462012;28;20247;-77
2021/12/01 01:39:13;;;;;;;3.93;3.00;;;;;9.10;99635.00;;;;10479484;28;20757;-78
2021/12/01 01:44:15;;;;;;;4.87;4.37;;;;;9.00;99621.00;;;;10486936;28;20262;-78
2021/12/01 01:49:23;;;;;;;4.87;4.30;;;;;8.90;99629.00;;;;10528073;28;20200;-78
2021/12/01 01:54:25;;;;;;;5.00;4.50;;;;;8.90;99602.00;;;;10546392;28;20245;-77
2021/12/01 01:59:27;;;;;;;5.40;4.63;;;;;8.80;99618.00;;;;10503285;28;20209;-78
2021/12/01 02:04:33;;;;;;;7.67;4.67;;;;;8.80;99589.00;;;;10475483;28;20204;-79
2021/12/01 02:09:35;;;;;;;6.57;4.93;;;;;8.80;99584.00;;;;10503049;28;20209;-78
2021/12/01 02:14:37;;;;;;;5.10;4.60;;;;;8.80;99572.00;;;;10485488;28;20201;-78
2021/12/01 02:19:39;;;;;;;7.90;4.33;;;;;8.80;99565.00;;;;10486101;28;20294;-78
2021/12/01 02:24:45;;;;;;;5.17;4.50;;;;;8.80;99545.00;;;;10502814;28;20193;-78
2021/12/01 02:29:47;;;;;;;5.27;4.27;;;;;8.80;99535.00;;;;10484127;28;20239;-78
2021/12/01 02:34:49;;;;;;;7.73;3.67;;;;;8.80;99518.00;;;;10460268;28;20221;-77
2021/12/01 02:39:51;;;;;;;4.30;3.90;;;;;8.70;99509.00;;;;10484692;28;20217;-78
2021/12/01 02:44:54;;;;;;;7.10;4.60;;;;;8.70;99496.00;;;;10460488;28;20198;-78
2021/12/01 02:49:56;;;;;;;6.83;4.60;;;;;8.70;99496.00;;;;10448603;28;20193;-78
2021/12/01 02:54:59;;;;;;;7.67;4.80;;;;;8.70;99475.00;;;;10468068;28;20203;-78
2021/12/01 03:00:02;;;;;;;7.33;5.23;;;;;8.70;99469.00;;;;10467825;28;20229;-77
2021/12/01 03:05:07;;;;;;;8.53;5.60;;;;;8.70;99439.00;;;;10467330;28;20197;-78
2021/12/01 03:10:10;;;;;;;6.93;5.87;;;;;8.70;99437.00;;;;10484073;28;20611;-78
2021/12/01 03:15:16;;;;;;;6.37;4.63;;;;;8.70;99425.00;;;;10503073;28;20201;-78
2021/12/01 03:20:22;;;;;;;8.13;6.57;;;;;8.60;99415.00;;;;10467241;28;20224;-78
2021/12/01 03:25:24;;;;;;;9.17;6.20;;;;;8.60;99408.00;;;;10482858;28;20197;-78
2021/12/01 03:30:33;;;;;;;7.33;6.50;;;;;8.60;99363.00;;;;10466770;28;20194;-78
2021/12/01 03:35:38;;;;;;;7.50;6.77;;;;;8.50;99355.00;;;;10473219;28;20281;-78
2021/12/01 03:40:41;;;;;;;10.30;6.27;;;;;8.40;99318.00;;;;10515344;28;20225;-81
2021/12/01 03:45:43;;;;;;;7.83;6.87;;;;;8.30;99305.00;;;;10461089;28;20185;-82
2021/12/01 03:50:49;;;;;;;9.67;6.43;;;;;8.20;99274.00;;;;10501594;28;20254;-82
2021/12/01 03:55:51;;;;;;;7.47;6.60;;;;;8.20;99267.00;;;;10482405;28;20189;-82
2021/12/01 04:00:53;;;;;;;7.60;5.90;;;;;8.10;99253.00;;;;10500549;28;20208;-81
2021/12/01 04:05:55;;;;;;;7.17;6.47;;;;;8.10;99240.00;;;;10471094;28;20205;-81
2021/12/01 04:10:57;;;;;;;6.90;5.50;;;;;8.20;99205.00;;;;10475863;28;20250;-81
2021/12/01 04:15:59;;;;;;;5.03;4.53;;;;;8.20;99201.00;;;;10454402;28;20205;-81
2021/12/01 04:21:01;;;;;;;4.83;4.00;;;;;8.20;99188.00;;;;10466083;28;20225;-81
2021/12/01 04:26:04;;;;;;;4.27;2.80;;;;;8.20;99177.00;;;;10465399;28;20726;-81
2021/12/01 04:31:06;;;;;;;2.47;2.27;;;;;8.20;99176.00;;;;10464452;28;20249;-80
2021/12/01 04:36:09;;;;;;;2.93;2.20;;;;;8.20;99165.00;;;;10467451;28;20579;-80
2021/12/01 04:41:13;;;;;;;2.10;1.90;;;;;8.20;99147.00;;;;10505914;28;20209;-81
2021/12/01 04:46:19;;;;;;;3.03;1.70;;;;;8.10;99135.00;;;;10507221;28;20281;-81
2021/12/01 04:51:21;;;;;;;3.37;1.90;;;;;8.10;99128.00;;;;10498506;28;20200;-81
2021/12/01 04:56:23;;;;;;;1.40;1.20;;;;;8.00;99116.00;;;;10515414;27;20264;-82
2021/12/01 05:01:25;;;;;;;1.90;1.70;;;;;8.00;99118.00;;;;10470121;28;20765;-81
2021/12/01 05:06:28;;;;;;;1.80;1.37;;;;;8.00;99100.00;;;;10503241;27;20311;-81
2021/12/01 05:11:30;;;;;;;1.73;1.30;;;;;8.00;99088.00;;;;10476377;28;20255;-81
2021/12/01 05:16:44;;;;;;;1.53;1.30;;;;;7.90;99076.00;;;;10473178;28;20225;-81
2021/12/01 05:21:47;;;;;;;2.60;1.30;;;;;7.90;99076.00;;;;10504725;28;20228;-81
2021/12/01 05:26:49;;;;;;;1.93;1.00;;;;;8.00;99057.00;;;;10465283;28;20242;-80
2021/12/01 05:31:52;;;;;;;1.37;1.20;;;;;8.00;99048.00;;;;10463352;28;20213;-81
2021/12/01 05:36:59;;;;;;;2.43;1.20;;;;;8.00;99071.00;;;;10463369;28;20206;-81
2021/12/01 05:42:01;;;;;;;1.70;1.60;;;;;8.10;99049.00;;;;10479239;28;20319;-81
2021/12/01 05:47:03;;;;;;;2.10;1.83;;;;;8.10;99037.00;;;;10477228;28;20587;-80
2021/12/01 05:52:07;;;;;;;2.60;2.10;;;;;8.10;99012.00;;;;10438245;28;20292;-80
2021/12/01 05:57:10;;;;;;;5.20;2.40;;;;;8.20;99018.00;;;;10470279;28;20208;-80
2021/12/01 06:02:12;;;;;;;3.70;2.37;;;;;8.20;98997.00;;;;10482119;28;20566;-81
2021/12/01 06:07:14;;;;;;;4.43;2.47;;;;;8.20;98994.00;;;;10464067;28;20232;-81
2021/12/01 06:12:16;;;;;;;2.60;2.40;;;;;8.30;98985.00;;;;10488178;28;20664;-81
2021/12/01 06:17:18;;;;;;;4.13;3.03;;;;;8.30;98977.00;;;;10473270;28;20204;-81
2021/12/01 06:22:20;;;;;;;3.53;3.00;;;;;8.30;98956.00;;;;10503570;28;20220;-81
2021/12/01 06:27:23;;;;;;;3.40;2.30;;;;;8.30;98951.00;;;;10511044;28;20199;-81
2021/12/01 06:32:24;;;;;;;2.60;2.17;;;;;8.30;98946.00;;;;10483889;28;20217;-80
2021/12/01 06:37:27;;;;;;;4.17;2.20;;;;;8.30;98947.00;;;;10482643;28;20196;-80
2021/12/01 06:42:29;;;;;;;4.17;2.10;;;;;8.40;98936.00;;;;10491240;28;20213;-80
2021/12/01 06:47:31;;;;;;;2.47;1.77;;;;;8.50;98939.00;;;;10495428;28;20667;-80
2021/12/01 06:52:33;;;;;;;1.70;1.60;;;;;8.50;98930.00;;;;10472611;28;20193;-81
2021/12/01 06:57:35;;;;;;;5.60;1.90;;;;;8.50;98912.00;;;;10466005;28;20267;-80
2021/12/01 07:02:37;;;;;;;3.07;2.00;;;;;8.50;98916.00;;;;10446648;28;20228;-81
2021/12/01 07:07:40;;;;;;;2.53;1.60;;;;;8.50;98917.00;;;;10479339;28;20197;-81
2021/12/01 07:12:43;;;;;;;3.13;2.30;;;;;8.60;98927.00;;;;10494290;28;20260;-79
2021/12/01 07:17:44;;;;;;;2.17;1.57;;;;;8.60;98923.00;;;;10510145;28;20208;-80
2021/12/01 07:22:47;;;;;;;2.77;1.97;;;;;8.60;98920.00;;;;10477715;28;20243;-79
2021/12/01 07:27:49;;;;;;;3.20;1.53;;;;;8.60;98917.00;;;;10491585;28;20658;-79
2021/12/01 07:32:51;;;;;;;3.13;1.40;;;;;8.60;98917.00;;;;10490587;28;20232;-79
2021/12/01 07:37:53;;;;;;;1.40;1.30;;;;;8.70;98897.00;;;;10465618;28;20201;-79
2021/12/01 07:42:55;;;;;;;1.40;1.30;;;;;8.70;98906.00;;;;10467193;28;20227;-79
2021/12/01 07:47:57;;;;;;;1.30;1.20;;;;;8.70;98901.00;;;;10475224;28;20753;-79
2021/12/01 07:52:59;;;;;;;1.60;1.13;;;;;8.70;98895.00;;;;10472844;28;20432;-79
2021/12/01 07:58:03;;;;;;;1.97;1.67;;;;;8.70;98886.00;;;;10471973;28;20723;-80
2021/12/01 08:03:05;;;;;;;1.60;1.50;;;;;8.70;98880.00;;;;10469165;28;20225;-79
2021/12/01 08:08:08;;;;;;;2.10;1.40;;;;;8.80;98880.00;;;;10492089;28;20204;-79
2021/12/01 08:13:10;;;;;;;1.60;1.50;;;;;8.80;98881.00;;;;10546118;28;20220;-78
2021/12/01 08:18:22;;;;;;;2.23;2.03;;;;;8.90;98879.00;;;;10490526;28;20211;-80
2021/12/01 08:23:24;;;;;;;3.13;2.00;;;;;9.00;98862.00;;;;10479067;28;20634;-80
2021/12/01 08:28:26;;;;;;;2.43;2.00;;;;;9.00;98866.00;;;;10481666;28;20204;-79
2021/12/01 08:33:30;;;;;;;4.07;2.20;;;;;9.20;98862.00;;;;10488552;28;20698;-79
2021/12/01 08:38:32;;;;;;;2.10;1.90;;;;;9.30;98862.00;;;;10458956;27;20202;-79
2021/12/01 08:43:35;;;;;;;2.00;1.80;;;;;9.30;98861.00;;;;10483972;28;20716;-79
2021/12/01 08:48:37;;;;;;;3.07;2.30;;;;;9.20;98863.00;;;;10459385;28;20201;-79
2021/12/01 08:53:41;;;;;;;2.20;1.77;;;;;9.10;98867.00;;;;10481755;28;20223;-78
2021/12/01 08:58:43;;;;;;;2.93;1.67;;;;;9.10;98862.00;;;;10495062;28;20232;-79
2021/12/01 09:03:45;;;;;;;1.90;1.80;;;;;9.00;98862.00;;;;10488206;28;20228;-80
2021/12/01 09:08:47;;;;;;;2.10;1.90;;;;;9.00;98867.00;;;;10487422;28;20722;-79
2021/12/01 09:13:49;;;;;;;2.20;2.00;;;;;9.20;98851.00;;;;10476933;28;20206;-81
2021/12/01 09:18:56;;;;;;;2.77;2.43;;;;;9.30;98850.00;;;;10502905;28;20200;-80
2021/12/01 09:23:58;;;;;;;2.40;2.20;;;;;9.40;98850.00;;;;10453815;28;20217;-80
2021/12/01 09:29:01;;;;;;;4.07;2.37;;;;;9.30;98848.00;;;;10508198;28;20232;-80
2021/12/01 09:34:03;;;;;;;2.83;2.60;;;;;9.20;98863.00;;;;10471602;28;20217;-80
2021/12/01 09:39:05;;;;;;;4.33;3.20;;;;;9.20;98880.00;;;;10509980;28;20202;-79
2021/12/01 09:44:07;;;;;;;4.90;3.20;;;;;9.20;98898.00;;;;10480188;28;20229;-79
2021/12/01 09:49:10;;;;;;;6.93;2.50;;;;;9.20;98882.00;;;;10444524;28;20205;-79
2021/12/01 09:54:12;;;;;;;10.57;1.70;;;;;9.20;98882.00;;;;10451412;28;20202;-79
2021/12/01 09:59:14;;;;;;;5.43;1.67;;;;;9.30;98893.00;;;;10521608;27;20208;-79
2021/12/01 10:04:16;;;;;;;1.33;1.20;;;;;9.30;98897.00;;;;10464139;28;20225;-79
2021/12/01 10:09:19;;;;;;;4.77;1.43;;;;;9.10;98898.00;;;;10486164;28;20251;-80
2021/12/01 10:14:21;;;;;;;6.73;1.20;;;;;9.10;98900.00;;;;10472566;28;20197;-79
2021/12/01 10:19:25;;;;;;;2.57;1.50;;;;;9.20;98899.00;;;;10495078;28;20200;-79
2021/12/01 10:24:32;;;;;;;6.63;1.43;;;;;9.50;98886.00;;;;10507746;28;20229;-79
2021/12/01 10:29:42;;;;;;;5.43;1.93;;;;;10.50;98908.00;;;;10490264;28;20197;-79
2021/12/01 10:34:53;;;;;;;8.10;1.70;;;;;10.40;98930.00;;;;10487661;28;20224;-79
2021/12/01 10:40:15;;;;;;;7.17;1.63;;;;;9.90;98911.00;;;;10476644;28;20205;-79
2021/12/01 10:45:29;;;;;;;3.00;1.27;;;;;9.40;98891.00;;;;10455113;28;20208;-79
2021/12/01 10:50:37;;;;;;;5.30;1.47;;;;;9.30;98923.00;;;;10476657;28;20215;-78
2021/12/01 10:55:47;;;;;;;11.80;2.17;;;;;9.50;98931.00;;;;10471353;28;20201;-78
2021/12/01 11:00:53;;;;;;;7.43;1.30;;;;;9.70;98929.00;;;;10513166;27;20231;-78
2021/12/01 11:06:08;;;;;;;3.33;1.00;;;;;9.90;98935.00;;;;10552866;27;20539;-78
2021/12/01 11:11:15;;;;;;;4.70;1.23;;;;;9.40;98926.00;;;;10479692;28;20201;-78
2021/12/01 11:16:36;;;;;;;5.83;1.53;;;;;8.90;98939.00;;;;10517145;28;20196;-78
2021/12/01 11:21:39;;;;;;;6.00;1.30;;;;;8.80;98942.00;;;;10491416;28;20224;-78
2021/12/01 11:26:44;;;;;;;3.60;1.33;;;;;9.10;98941.00;;;;10475381;28;20212;-78
2021/12/01 11:32:07;;;;;;;5.43;1.63;;;;;9.20;98937.00;;;;10457574;28;20216;-78
2021/12/01 11:37:09;;;;;;;5.93;2.00;;;;;9.50;98941.00;;;;10476055;28;20208;-78
2021/12/01 11:42:11;;;;;;;5.83;1.90;;;;;9.70;98940.00;;;;10501279;27;20221;-78
2021/12/01 11:47:14;;;;;;;5.40;1.70;;;;;9.80;98924.00;;;;10465477;28;20235;-77
2021/12/01 11:52:16;;;;;;;5.47;1.30;;;;;9.80;98932.00;;;;10462890;28;20205;-77
2021/12/01 11:57:19;;;;;;;9.23;1.40;;;;;9.80;98932.00;;;;10465477;28;20204;-78
2021/12/01 12:02:24;;;;;;;4.07;1.40;;;;;9.80;98933.00;;;;10457874;28;20221;-77
2021/12/01 12:07:26;;;;;;;4.03;0.87;;;;;9.60;98940.00;;;;10468078;28;20197;-77
2021/12/01 12:12:43;;;;;;;5.47;1.67;;;;;9.80;98932.00;;;;10471787;28;20844;-78
2021/12/01 12:17:45;;;;;;;4.37;1.03;;;;;9.80;98932.00;;;;10473422;28;20191;-78
2021/12/01 12:22:47;;;;;;;4.37;0.97;;;;;9.60;98920.00;;;;10494190;27;20216;-77
2021/12/01 12:27:49;;;;;;;2.77;1.20;;;;;9.50;98917.00;;;;10462393;28;20209;-78
2021/12/01 12:33:22;;;;;;;6.40;1.07;;;;;9.50;98912.00;;;;10472751;28;20215;-77
2021/12/01 12:38:24;;;;;;;3.07;2.07;;;;;9.40;98922.00;;;;10502152;28;20200;-78
2021/12/01 12:43:28;;;;;;;3.60;0.90;;;;;9.40;98905.00;;;;10501211;28;20223;-77
2021/12/01 12:48:40;;;;;;;3.10;1.10;;;;;9.70;98915.00;;;;10510844;28;20203;-77
2021/12/01 12:54:08;;;;;;;3.97;1.00;;;;;9.70;98922.00;;;;10460681;28;20232;-78
2021/12/01 12:59:26;;;;;;;4.33;1.30;;;;;9.40;98911.00;;;;10502886;28;20197;-78
2021/12/01 13:04:59;;;;;;;5.00;1.10;;;;;9.40;98904.00;;;;10516702;28;20594;-78
2021/12/01 13:10:10;;;;;;;4.17;1.20;;;;;9.00;98917.00;;;;10501148;28;20250;-79
2021/12/01 13:15:34;;;;;;;4.87;1.33;;;;;8.80;98907.00;;;;10469765;28;20287;-80
2021/12/01 13:20:41;;;;;;;6.27;1.40;;;;;8.70;98898.00;;;;10518096;28;20224;-79
2021/12/01 13:26:05;;;;;;;6.10;1.43;;;;;8.60;98897.00;;;;10486912;28;20201;-79
2021/12/01 13:31:12;;;;;;;4.80;1.70;;;;;8.70;98907.00;;;;10479434;28;20245;-80
2021/12/01 13:36:16;;;;;;;4.70;1.20;;;;;8.80;98908.00;;;;10463171;28;20630;-79
2021/12/01 13:41:18;;;;;;;4.60;1.67;;;;;8.90;98910.00;;;;10512562;28;20217;-79
2021/12/01 13:46:20;;;;;;;4.67;1.37;;;;;9.00;98916.00;;;;10466763;28;20614;-80
2021/12/01 13:51:24;;;;;;;4.53;1.40;;;;;8.90;98916.00;;;;10486175;28;20215;-80
2021/12/01 13:56:27;;;;;;;5.97;1.57;;;;;8.60;98923.00;;;;10514798;28;20663;-80
2021/12/01 14:01:29;;;;;;;7.73;2.00;;;;;8.50;98933.00;;;;10486026;28;20677;-80
2021/12/01 14:06:36;;;;;;;6.47;1.70;;;;;8.40;98923.00;;;;10483830;28;20196;-80
2021/12/01 14:11:44;;;;;;;5.90;1.93;;;;;8.30;98916.00;;;;10518672;28;20246;-80
2021/12/01 14:17:00;;;;;;;6.73;2.00;;;;;8.20;98929.00;;;;10470905;28;20694;-79
2021/12/01 14:22:10;;;;;;;10.27;2.33;;;;;8.30;98928.00;;;;10512599;28;20220;-79
2021/12/01 14:27:12;;;;;;;9.27;3.20;;;;;8.20;98933.00;;;;10485940;28;20560;-79
2021/12/01 14:32:14;;;;;;;10.20;2.87;;;;;8.20;98941.00;;;;10489220;28;20299;-79
2021/12/01 14:37:17;;;;;;;15.97;2.60;;;;;8.10;98940.00;;;;10503495;28;20204;-79
2021/12/01 14:42:23;;;;;;;14.90;2.70;;;;;8.10;98950.00;;;;10458200;28;20715;-79
2021/12/01 14:47:25;;;;;;;7.17;2.30;;;;;8.10;98957.00;;;;10467621;28;20194;-79
2021/12/01 14:52:33;;;;;;;10.67;2.80;;;;;8.00;98960.00;;;;10495858;27;20247;-79
2021/12/01 14:57:47;;;;;;;7.87;2.13;;;;;8.10;98976.00;;;;10461182;28;20193;-79
2021/12/01 15:02:49;;;;;;;7.50;2.50;;;;;8.20;98981.00;;;;10462438;28;20213;-79
2021/12/01 15:07:51;;;;;;;10.17;2.70;;;;;8.20;98982.00;;;;10515410;28;20288;-79
2021/12/01 15:13:11;;;;;;;9.83;2.83;;;;;8.10;98997.00;;;;10476376;28;20227;-79
2021/12/01 15:18:24;;;;;;;12.50;2.80;;;;;7.90;98980.00;;;;10487360;28;20204;-79
2021/12/01 15:23:39;;;;;;;8.90;2.57;;;;;7.80;98990.00;;;;10482484;28;20232;-79
2021/12/01 15:28:43;;;;;;;8.90;2.77;;;;;7.70;99000.00;;;;10471669;28;20201;-78
2021/12/01 15:33:45;;;;;;;9.30;2.60;;;;;7.70;98980.00;;;;10512005;27;20216;-78
2021/12/01 15:38:47;;;;;;;10.93;2.80;;;;;7.70;98992.00;;;;10503976;27;20192;-79
2021/12/01 15:43:50;;;;;;;12.77;3.10;;;;;7.60;98998.00;;;;10514394;28;20217;-78
2021/12/01 15:49:03;;;;;;;12.50;3.37;;;;;7.50;99007.00;;;;10477259;27;20563;-79
2021/12/01 15:54:05;;;;;;;7.83;2.20;;;;;7.50;99004.00;;;;10470864;28;20210;-78
2021/12/01 15:59:07;;;;;;;11.60;2.37;;;;;7.40;99015.00;;;;10479480;28;20201;-78
2021/12/01 16:04:09;;;;;;;16.10;3.83;;;;;7.40;99022.00;;;;10494863;28;20259;-78
2021/12/01 16:09:11;;;;;;;8.70;3.13;;;;;7.40;99036.00;;;;10485445;28;20196;-78
2021/12/01 16:14:15;;;;;;;9.57;2.67;;;;;7.40;99047.00;;;;10499845;28;20201;-78
2021/12/01 16:19:17;;;;;;;9.70;2.47;;;;;7.40;99054.00;;;;10473991;28;20663;-78
2021/12/01 16:24:19;;;;;;;7.20;2.17;;;;;7.30;99047.00;;;;10492529;28;20220;-79
2021/12/01 16:29:23;;;;;;;13.03;3.17;;;;;7.20;99051.00;;;;10462314;28;20704;-79
2021/12/01 16:34:30;;;;;;;8.00;2.87;;;;;7.10;99057.00;;;;10463426;28;20286;-79
2021/12/01 16:39:31;;;;;;;13.33;3.20;;;;;7.20;99050.00;;;;10481995;28;20215;-79
2021/12/01 16:44:34;;;;;;;10.90;3.40;;;;;7.10;99051.00;;;;10479070;28;20599;-79
2021/12/01 16:49:36;;;;;;;8.47;2.97;;;;;7.10;99056.00;;;;10473930;28;20223;-79
2021/12/01 16:54:37;;;;;;;14.00;3.20;;;;;7.20;99077.00;;;;10523225;28;20197;-79
2021/12/01 16:59:40;;;;;;;14.10;3.43;;;;;7.20;99085.00;;;;10504130;28;20208;-80
2021/12/01 17:04:44;;;;;;;10.40;3.10;;;;;7.10;99095.00;;;;10518941;27;20231;-79
2021/12/01 17:09:48;;;;;;;11.23;2.73;;;;;7.00;99087.00;;;;10484084;28;20209;-79
2021/12/01 17:14:50;;;;;;;12.57;3.17;;;;;7.00;99105.00;;;;10496425;28;20227;-79
2021/12/01 17:19:54;;;;;;;10.17;3.37;;;;;6.90;99112.00;;;;10502087;28;20680;-79
2021/12/01 17:24:56;;;;;;;12.83;3.10;;;;;6.80;99119.00;;;;10503498;28;20228;-79
2021/12/01 17:29:58;;;;;;;8.47;3.27;;;;;6.70;99123.00;;;;10494910;28;20221;-79
2021/12/01 17:35:01;;;;;;;6.00;3.00;;;;;6.70;99145.00;;;;10495116;28;20215;-80
2021/12/01 17:40:04;;;;;;;7.10;1.97;;;;;6.60;99150.00;;;;10469578;28;20205;-80
2021/12/01 17:45:07;;;;;;;4.60;1.90;;;;;6.60;99154.00;;;;10485553;28;20251;-80
2021/12/01 17:50:12;;;;;;;4.37;1.33;;;;;6.40;99153.00;;;;10469949;28;20257;-79
2021/12/01 17:55:17;;;;;;;4.90;1.70;;;;;6.40;99179.00;;;;10477271;28;20204;-80
2021/12/01 18:00:22;;;;;;;3.70;1.53;;;;;6.40;99194.00;;;;10467217;28;20669;-80
2021/12/01 18:05:24;;;;;;;4.70;1.70;;;;;6.40;99207.00;;;;10486124;28;20221;-80
2021/12/01 18:10:26;;;;;;;2.07;1.50;;;;;6.40;99214.00;;;;10484132;28;20299;-80
2021/12/01 18:15:30;;;;;;;4.07;1.80;;;;;6.30;99197.00;;;;10495742;28;20295;-80
2021/12/01 18:20:32;;;;;;;3.47;1.40;;;;;6.30;99207.00;;;;10474639;28;20299;-80
2021/12/01 18:25:38;;;;;;;5.50;1.63;;;;;6.20;99220.00;;;;10495455;28;20228;-80
2021/12/01 18:30:41;;;;;;;3.60;1.83;;;;;6.20;99223.00;;;;10494577;28;20204;-80
2021/12/01 18:35:42;;;;;;;4.87;1.77;;;;;6.20;99219.00;;;;10489306;28;20197;-79
2021/12/01 18:40:44;;;;;;;5.60;2.10;;;;;6.10;99226.00;;;;10499194;28;20196;-80
2021/12/01 18:45:46;;;;;;;6.73;2.83;;;;;6.00;99236.00;;;;10471893;28;20220;-79
2021/12/01 18:50:48;;;;;;;7.53;3.07;;;;;6.10;99246.00;;;;10470140;28;20192;-80
2021/12/01 18:55:50;;;;;;;4.37;2.80;;;;;6.00;99248.00;;;;10491959;28;20204;-79
2021/12/01 19:01:10;;;;;;;7.33;3.93;;;;;6.00;99259.00;;;;10495253;28;20326;-79
2021/12/01 19:06:13;;;;;;;9.70;3.20;;;;;6.00;99256.00;;;;10471320;28;20261;-79
2021/12/01 19:11:17;;;;;;;7.47;2.90;;;;;6.00;99275.00;;;;10510093;28;20715;-79
2021/12/01 19:16:19;;;;;;;9.03;3.17;;;;;6.00;99274.00;;;;10486405;28;20199;-79
2021/12/01 19:21:21;;;;;;;8.03;2.50;;;;;6.00;99289.00;;;;10450130;28;20252;-80
2021/12/01 19:26:25;;;;;;;6.23;2.53;;;;;6.10;99316.00;;;;10487670;28;20201;-80
2021/12/01 19:31:27;;;;;;;5.10;2.47;;;;;6.10;99319.00;;;;10519710;28;20236;-80
2021/12/01 19:36:30;;;;;;;3.73;2.60;;;;;6.00;99327.00;;;;10485666;28;20197;-80
2021/12/01 19:41:36;;;;;;;7.10;2.30;;;;;6.00;99326.00;;;;10498334;28;20647;-79
2021/12/01 19:46:43;;;;;;;5.53;2.50;;;;;6.00;99333.00;;;;10493918;28;20679;-79
2021/12/01 19:51:55;;;;;;;3.80;2.50;;;;;5.90;99327.00;;;;10509085;28;20231;-79
2021/12/01 19:56:57;;;;;;;5.00;2.60;;;;;5.90;99341.00;;;;10479553;28;20648;-79
2021/12/01 20:01:59;;;;;;;5.47;2.37;;;;;5.90;99352.00;;;;10452020;28;20229;-79
2021/12/01 20:07:03;;;;;;;3.23;2.20;;;;;5.90;99364.00;;;;10457155;28;20665;-79
2021/12/01 20:12:08;;;;;;;2.97;1.87;;;;;5.90;99381.00;;;;10486527;28;20197;-79
2021/12/01 20:17:12;;;;;;;5.20;2.30;;;;;5.80;99384.00;;;;10479399;28;20211;-79
2021/12/01 20:22:15;;;;;;;3.63;1.90;;;;;5.70;99384.00;;;;10472953;28;20216;-79
2021/12/01 20:27:17;;;;;;;3.10;1.90;;;;;5.70;99382.00;;;;10494681;28;20205;-79
2021/12/01 20:32:19;;;;;;;3.30;1.53;;;;;5.70;99397.00;;;;10490668;28;20236;-79
2021/12/01 20:37:22;;;;;;;5.33;1.87;;;;;5.60;99410.00;;;;10472475;28;20206;-79
2021/12/01 20:42:26;;;;;;;3.13;1.23;;;;;5.60;99403.00;;;;10483855;28;20266;-79
2021/12/01 20:47:55;;;;;;;5.07;1.50;;;;;5.50;99398.00;;;;10488556;28;20201;-78
2021/12/01 20:53:07;;;;;;;7.43;1.80;;;;;5.50;99409.00;;;;10494822;28;20220;-79
2021/12/01 20:58:14;;;;;;;6.60;1.90;;;;;5.50;99405.00;;;;10506026;28;20208;-79
2021/12/01 21:03:17;;;;;;;9.60;2.07;;;;;5.50;99422.00;;;;10488511;28;20224;-79
2021/12/01 21:08:24;;;;;;;5.23;2.10;;;;;5.50;99420.00;;;;10485163;28;20227;-79
2021/12/01 21:13:30;;;;;;;9.13;3.27;;;;;5.50;99422.00;;;;10467436;28;20715;-79
2021/12/01 21:18:37;;;;;;;7.43;2.70;;;;;5.50;99411.00;;;;10467368;28;20204;-79
2021/12/01 21:23:46;;;;;;;7.93;3.20;;;;;5.60;99421.00;;;;10487754;28;20220;-79
2021/12/01 21:28:48;;;;;;;7.20;2.97;;;;;5.60;99428.00;;;;10485165;28;20196;-79
2021/12/01 21:33:55;;;;;;;7.43;3.40;;;;;5.60;99434.00;;;;10500832;28;20220;-79
2021/12/01 21:38:58;;;;;;;6.43;3.27;;;;;5.60;99445.00;;;;10509651;28;20227;-79
2021/12/01 21:44:00;;;;;;;6.63;3.37;;;;;5.60;99449.00;;;;10515210;28;20265;-79
2021/12/01 21:49:02;;;;;;;5.13;4.00;;;;;5.60;99452.00;;;;10472584;28;20799;-79
2021/12/01 21:54:05;;;;;;;7.23;4.50;;;;;5.60;99448.00;;;;10521648;28;20184;-79
2021/12/01 21:59:09;;;;;;;10.87;5.07;;;;;5.60;99448.00;;;;10512276;28;20211;-79
2021/12/01 22:04:11;;;;;;;11.83;4.70;;;;;5.50;99455.00;;;;10510079;28;20220;-79
2021/12/01 22:09:16;;;;;;;9.23;4.63;;;;;5.60;99461.00;;;;10499827;28;20201;-80
2021/12/01 22:14:18;;;;;;;7.80;4.53;;;;;5.60;99466.00;;;;10512185;28;20208;-80
2021/12/01 22:19:20;;;;;;;11.00;5.00;;;;;5.50;99472.00;;;;10512423;28;20197;-79
2021/12/01 22:24:27;;;;;;;13.90;5.17;;;;;5.50;99484.00;;;;10500037;28;20212;-79
2021/12/01 22:29:31;;;;;;;10.43;5.03;;;;;5.50;99485.00;;;;10457268;28;20232;-79
2021/12/01 22:34:35;;;;;;;14.33;4.90;;;;;5.50;99484.00;;;;10487576;28;20228;-79
2021/12/01 22:39:37;;;;;;;13.57;4.33;;;;;5.50;99492.00;;;;10482014;28;20211;-80
2021/12/01 22:44:39;;;;;;;10.70;4.40;;;;;5.50;99492.00;;;;10499705;28;20216;-80
2021/12/01 22:49:42;;;;;;;13.10;4.50;;;;;5.50;99494.00;;;;10499687;28;20197;-80
2021/12/01 22:54:44;;;;;;;10.17;4.77;;;;;5.40;99505.00;;;;10481020;28;20290;-80
2021/12/01 22:59:52;;;;;;;13.13;5.23;;;;;5.40;99495.00;;;;10495212;28;20565;-79
2021/12/01 23:04:56;;;;;;;14.83;5.47;;;;;5.40;99509.00;;;;10483658;28;20216;-79
2021/12/01 23:09:58;;;;;;;11.37;5.97;;;;;5.40;99502.00;;;;10474496;27;20197;-80
2021/12/01 23:15:00;;;;;;;12.63;5.00;;;;;5.40;99499.00;;;;10468934;28;20208;-79
2021/12/01 23:20:05;;;;;;;10.57;4.90;;;;;5.40;99506.00;;;;10505972;28;20614;-79
2021/12/01 23:30:27;;;;;;;13.47;5.40;;;;;5.50;99510.00;;;;10488195;28;20193;-80
2021/12/01 23:35:29;;;;;;;15.40;5.73;;;;;5.50;99510.00;;;;10451277;28;20213;-80
2021/12/01 23:40:32;;;;;;;15.33;5.40;;;;;5.40;99518.00;;;;10520813;28;20218;-80
2021/12/01 23:55:56;;;;;;;13.77;4.77;;;;;5.40;99532.00;;;;10497755;28;20693;-80
